Saturday, September 22, 2018, 9:33 AM EDT
Back to Local

KMVY, Vineyard Haven Marthas Vin

Location: Vineyard Haven, MA, United States Lat: 41.4
Local Time: 9:33 AM EDT (13:33 GMT) Lon: -70.617
Time Zone: US/Eastern Elev: 68 ft

Show me the last for .
Show Decoded

2018-09-22 08:53 METAR KMVY 221253Z 29011G24KT 10SM CLR 23/14 A2999 RMK AO2 SLP155 T02280144 =
2018-09-22 08:01 METAR KMVY 221201Z 28009KT 8SM SCT009 23/21 A2996 RMK AO2 T02280211 =
2018-09-22 07:53 METAR KMVY 221153Z 27011G21KT 7SM BKN010 22/21 A2996 RMK AO2 SLP145 T02220211
                 10222 20206 53017 =
2018-09-22 06:53 METAR KMVY 221053Z 24012G21KT 8SM BKN013 BKN020 OVC025 22/21 A2994 RMK AO2
                 SLP136 T02170206 =
2018-09-22 05:53 METAR KMVY 220953Z 22014G24KT 9SM BKN017 OVC023 22/21 A2991 RMK AO2 PK WND
                 22027/0905 SLP129 T02170206 =
2018-09-22 04:53 METAR KMVY 220853Z AUTO 22016G24KT 10SM OVC029 21/20 A2991 RMK AO2 PK WND
                 22026/0758 SLP127 T02110200 56020 =
2018-09-22 04:43 METAR KMVY 220843Z AUTO 21018G24KT 10SM OVC029 21/20 A2991 RMK AO2 PK WND
                 22026/0758 T02110200 =
2018-09-22 03:53 METAR KMVY 220753Z AUTO 21015G22KT 10SM SCT032 21/20 A2992 RMK AO2 PK WND
                 22027/0736 SLP131 T02110200 =
2018-09-22 02:53 METAR KMVY 220653Z AUTO 22014KT 10SM FEW100 21/19 A2994 RMK AO2 SLP139 T02060194
                 =
2018-09-22 01:53 METAR KMVY 220553Z AUTO 21016G21KT 10SM CLR 21/19 A2997 RMK AO2 SLP147 T02060194
                 10206 20183 58023 =
2018-09-22 00:53 METAR KMVY 220453Z AUTO 21015G21KT 10SM OVC046 21/19 A3000 RMK AO2 SLP157
                 T02060194 402060094 =
2018-09-21 23:53 METAR KMVY 220353Z AUTO 21014KT 10SM OVC046 20/19 A3003 RMK AO2 SLP167 T02000194
                 =
2018-09-21 22:53 METAR KMVY 220253Z AUTO 20014KT 10SM CLR 19/18 A3004 RMK AO2 SLP170 T01940183
                 56014 =
2018-09-21 21:53 METAR KMVY 220153Z 19014KT 10SM BKN047 19/18 A3004 RMK AO2 SLP172 T01940178 =
2018-09-21 20:53 METAR KMVY 220053Z 19012KT 10SM OVC048 19/17 A3005 RMK AO2 SLP177 T01940172 =
2018-09-21 19:53 METAR KMVY 212353Z 20011KT 10SM BKN047 19/16 A3008 RMK AO2 SLP185 T01890161
                 10200 20183 56022 =
2018-09-21 18:53 METAR KMVY 212253Z 19011KT 10SM OVC055 18/16 A3009 RMK AO2 SLP191 T01830156 =
2018-09-21 17:53 METAR KMVY 212153Z 21008KT 10SM SCT050 18/15 A3012 RMK AO2 SLP200 T01830150 =
2018-09-21 16:53 METAR KMVY 212053Z 21014KT 10SM CLR 19/14 A3014 RMK AO2 SLP207 T01940144 56022 =
2018-09-21 16:18 METAR KMVY 212018Z 19011KT 10SM SCT018 20/15 A3015 RMK AO2 T02000150 =
2018-09-21 15:53 METAR KMVY 211953Z 18011KT 10SM BKN021 19/15 A3016 RMK AO2 SLP213 T01940150 =
2018-09-21 15:00 METAR KMVY 211900Z 20011KT 10SM BKN020 19/14 A3018 RMK AO2 T01940139 =
2018-09-21 14:53 METAR KMVY 211853Z 19010KT 10SM SCT022 19/14 A3019 RMK AO2 SLP223 T01940144 =
2018-09-21 13:53 METAR KMVY 211753Z 18010KT 10SM CLR 19/13 A3021 RMK AO2 SLP229 T01940133 10200
                 20139 56023 =
2018-09-21 12:53 METAR KMVY 211653Z 16013KT 10SM SCT023 19/13 A3023 RMK AO2 SLP235 T01940133 =
2018-09-21 11:53 METAR KMVY 211553Z 16008KT 10SM CLR 19/12 A3025 RMK AO2 SLP244 T01890122 =
2018-09-21 10:53 METAR KMVY 211453Z 13011KT 10SM SCT024 19/13 A3028 RMK AO2 SLP253 T01890128
                 58010 =
2018-09-21 09:53 METAR KMVY 211353Z 11008KT 10SM FEW026 19/12 A3030 RMK AO2 SLP260 T01890122 =

Support USWX by starting your Amazon purchase here.